Time;durP1;ratioP1;P1;durP2;ratioP2;P2;SDS_P1;SDS_P2;PMS_P1;PMS_P2;Temp;Humidity;BMP_temperature;BMP_pressure;BME280_temperature;BME280_humidity;BME280_pressure;Samples;Min_cycle;Max_cycle;Signal;HPM_P1;HPM_P2
2022/03/08 00:00:24;;;;;;;15.35;7.00;;;2.10;99.90;;;;;;5071772;28;20562;-54
2022/03/08 00:02:50;;;;;;;12.95;6.75;;;2.10;99.90;;;;;;5090263;28;20048;-56
2022/03/08 00:05:16;;;;;;;14.98;7.60;;;2.10;99.90;;;;;;5091426;28;20040;-56
2022/03/08 00:07:42;;;;;;;14.77;6.97;;;2.00;99.90;;;;;;5091149;28;20067;-57
2022/03/08 00:10:09;;;;;;;14.27;6.63;;;2.00;99.90;;;;;;5090400;28;20036;-56
2022/03/08 00:12:35;;;;;;;13.00;6.93;;;2.10;99.90;;;;;;5091471;28;20036;-55
2022/03/08 00:15:01;;;;;;;12.73;6.38;;;2.10;99.90;;;;;;5091938;28;20040;-56
2022/03/08 00:17:26;;;;;;;15.02;7.00;;;2.20;99.90;;;;;;5090754;28;20115;-56
2022/03/08 00:19:52;;;;;;;14.50;7.68;;;2.20;99.90;;;;;;5082778;28;20496;-56
2022/03/08 00:22:18;;;;;;;15.73;7.72;;;2.10;99.90;;;;;;5071069;28;20055;-57
2022/03/08 00:24:43;;;;;;;12.60;6.72;;;2.10;99.90;;;;;;5071207;28;20055;-57
2022/03/08 00:27:09;;;;;;;14.82;7.25;;;2.10;99.90;;;;;;5082702;28;20035;-57
2022/03/08 00:29:34;;;;;;;17.15;7.72;;;2.10;99.90;;;;;;5091632;28;20074;-56
2022/03/08 00:32:00;;;;;;;14.20;7.38;;;2.00;99.90;;;;;;5090949;28;20089;-56
2022/03/08 00:34:26;;;;;;;12.70;7.05;;;2.00;99.90;;;;;;5091360;28;20040;-56
2022/03/08 00:36:51;;;;;;;14.50;7.18;;;2.00;99.90;;;;;;5091274;28;20039;-56
2022/03/08 00:39:18;;;;;;;13.93;7.35;;;1.90;99.90;;;;;;5091332;28;20067;-57
2022/03/08 00:41:44;;;;;;;13.93;6.78;;;1.90;99.90;;;;;;5091042;28;20521;-56
2022/03/08 00:44:10;;;;;;;14.10;7.53;;;1.90;99.90;;;;;;5091759;28;20038;-56
2022/03/08 00:46:36;;;;;;;15.70;7.18;;;1.80;99.90;;;;;;5090937;28;20108;-56
2022/03/08 00:49:02;;;;;;;14.57;7.10;;;1.80;99.90;;;;;;5089849;28;20452;-56
2022/03/08 00:51:27;;;;;;;12.93;7.57;;;1.70;99.90;;;;;;5082554;28;20036;-57
2022/03/08 00:53:53;;;;;;;14.82;7.85;;;1.70;99.90;;;;;;5091435;28;20421;-56
2022/03/08 00:56:18;;;;;;;15.45;7.90;;;1.60;99.90;;;;;;5090687;28;20039;-56
2022/03/08 00:58:44;;;;;;;18.20;7.88;;;1.70;99.90;;;;;;5091461;28;20116;-57
2022/03/08 01:01:09;;;;;;;14.70;7.55;;;1.60;99.90;;;;;;5090858;28;20039;-57
2022/03/08 01:03:35;;;;;;;17.30;8.05;;;1.60;99.90;;;;;;5090777;28;20028;-55
2022/03/08 01:06:01;;;;;;;14.90;7.43;;;1.60;99.90;;;;;;5090788;28;20123;-56
2022/03/08 01:08:26;;;;;;;13.60;7.63;;;1.50;99.90;;;;;;5091125;28;20047;-57
2022/03/08 01:10:52;;;;;;;14.85;7.30;;;1.50;99.90;;;;;;5091037;28;20503;-56
2022/03/08 01:13:18;;;;;;;17.30;7.90;;;1.40;99.90;;;;;;5089039;28;20067;-56
2022/03/08 01:15:43;;;;;;;16.17;7.60;;;1.40;99.90;;;;;;5083629;28;20039;-57
2022/03/08 01:18:09;;;;;;;14.43;7.35;;;1.30;99.90;;;;;;5091778;28;20054;-57
2022/03/08 01:20:35;;;;;;;16.38;7.80;;;1.20;99.90;;;;;;5094610;28;20081;-56
2022/03/08 01:23:01;;;;;;;17.83;7.97;;;1.20;99.90;;;;;;5094360;28;20045;-57
2022/03/08 01:25:27;;;;;;;16.20;8.05;;;1.20;99.90;;;;;;5094749;28;20097;-57
2022/03/08 01:27:52;;;;;;;15.07;7.65;;;1.10;99.90;;;;;;5093948;28;20115;-57
2022/03/08 01:30:20;;;;;;;16.90;8.48;;;1.10;99.90;;;;;;5094207;28;20115;-55
2022/03/08 01:32:46;;;;;;;13.90;7.70;;;1.00;99.90;;;;;;5094213;28;20036;-56
2022/03/08 01:35:12;;;;;;;15.40;7.90;;;0.90;99.90;;;;;;5094235;28;20119;-57
2022/03/08 01:37:38;;;;;;;17.83;8.20;;;0.90;99.90;;;;;;5094273;28;20043;-56
2022/03/08 01:40:06;;;;;;;18.20;8.73;;;0.90;99.90;;;;;;5094591;28;20040;-56
2022/03/08 01:42:32;;;;;;;14.80;8.00;;;0.90;99.90;;;;;;5093982;28;20075;-56
2022/03/08 01:44:57;;;;;;;17.30;9.05;;;0.90;99.90;;;;;;5093897;28;20525;-56
2022/03/08 01:47:24;;;;;;;15.15;8.10;;;0.90;99.90;;;;;;5093853;28;20035;-57
2022/03/08 01:49:52;;;;;;;17.83;8.15;;;0.90;99.90;;;;;;5092435;28;20043;-55
2022/03/08 01:52:20;;;;;;;14.00;7.82;;;0.80;99.90;;;;;;5094191;28;20093;-55
2022/03/08 01:54:46;;;;;;;18.65;8.75;;;0.80;99.90;;;;;;5079477;28;20036;-56
2022/03/08 01:57:12;;;;;;;18.50;9.25;;;0.80;99.90;;;;;;5083583;28;20460;-56
2022/03/08 01:59:38;;;;;;;18.65;8.85;;;0.80;99.90;;;;;;5078267;28;20452;-56
2022/03/08 02:02:04;;;;;;;15.38;8.60;;;0.80;99.90;;;;;;5089153;28;20169;-56
2022/03/08 02:04:30;;;;;;;17.48;9.35;;;0.70;99.90;;;;;;5086190;28;20032;-56
2022/03/08 02:06:55;;;;;;;19.02;9.27;;;0.70;99.90;;;;;;5091856;28;20040;-56
2022/03/08 02:09:21;;;;;;;15.35;8.45;;;0.70;99.90;;;;;;5083523;28;20047;-55
2022/03/08 02:11:47;;;;;;;16.88;8.32;;;0.60;99.90;;;;;;5086967;28;20048;-57
2022/03/08 02:14:17;;;;;;;18.30;8.82;;;0.60;99.90;;;;;;5093030;28;20052;-55
2022/03/08 02:16:43;;;;;;;16.10;9.10;;;0.60;99.90;;;;;;5079648;28;20036;-56
2022/03/08 02:19:13;;;;;;;17.42;9.07;;;0.50;99.90;;;;;;5081251;28;20041;-56
2022/03/08 02:21:39;;;;;;;18.55;9.77;;;0.50;99.90;;;;;;5079702;28;20097;-57
2022/03/08 02:24:05;;;;;;;18.98;8.98;;;0.60;99.90;;;;;;5092001;28;20044;-56
2022/03/08 02:26:31;;;;;;;19.20;9.93;;;0.60;99.90;;;;;;5092762;28;20032;-55
2022/03/08 02:28:59;;;;;;;19.98;9.32;;;0.70;99.90;;;;;;5084656;28;20101;-55
2022/03/08 02:31:25;;;;;;;19.65;9.75;;;0.70;99.90;;;;;;5092990;28;20043;-56
2022/03/08 02:33:50;;;;;;;19.70;9.77;;;0.60;99.90;;;;;;5092902;28;20388;-56
2022/03/08 02:36:16;;;;;;;19.38;9.98;;;0.60;99.90;;;;;;5093004;28;20117;-55
2022/03/08 02:38:41;;;;;;;17.83;9.77;;;0.70;99.90;;;;;;5091422;28;20453;-56
2022/03/08 02:41:07;;;;;;;19.13;10.55;;;0.70;99.90;;;;;;5092988;28;20466;-55
2022/03/08 02:43:33;;;;;;;21.20;10.23;;;0.70;99.90;;;;;;5091600;28;20035;-56
2022/03/08 02:45:59;;;;;;;21.15;10.32;;;0.80;99.90;;;;;;5092523;28;20047;-56
2022/03/08 02:48:28;;;;;;;17.70;10.00;;;0.80;99.90;;;;;;5084205;28;20039;-55
2022/03/08 02:50:55;;;;;;;19.40;9.85;;;0.80;99.90;;;;;;5092845;28;20120;-56
2022/03/08 02:53:21;;;;;;;20.77;11.40;;;0.80;99.90;;;;;;5091661;28;20048;-56
2022/03/08 02:55:47;;;;;;;21.48;11.13;;;0.90;99.90;;;;;;5092473;28;20488;-56
2022/03/08 02:58:13;;;;;;;21.40;11.50;;;0.90;99.90;;;;;;5092478;28;20043;-56
2022/03/08 03:00:39;;;;;;;23.30;11.48;;;1.00;99.90;;;;;;5092676;28;20036;-57
2022/03/08 03:03:06;;;;;;;26.48;11.95;;;1.00;99.90;;;;;;5081157;28;20040;-55
2022/03/08 03:05:33;;;;;;;20.17;10.48;;;1.00;99.90;;;;;;5084831;28;20036;-55
2022/03/08 03:07:59;;;;;;;18.98;9.93;;;1.00;99.90;;;;;;5091626;28;20557;-55
2022/03/08 03:10:26;;;;;;;20.67;11.20;;;1.00;99.90;;;;;;5092564;28;20519;-55
2022/03/08 03:12:53;;;;;;;19.92;10.60;;;1.00;99.90;;;;;;5091655;28;20068;-56
2022/03/08 03:15:20;;;;;;;21.50;11.30;;;1.00;99.90;;;;;;5084283;28;20111;-56
2022/03/08 03:17:46;;;;;;;21.48;10.55;;;1.00;99.90;;;;;;5092302;28;20075;-56
2022/03/08 03:20:15;;;;;;;23.08;11.65;;;1.00;99.90;;;;;;5092469;28;20035;-56
2022/03/08 03:22:41;;;;;;;21.70;11.63;;;0.90;99.90;;;;;;5091747;28;20050;-56
2022/03/08 03:25:07;;;;;;;19.30;11.00;;;0.90;99.90;;;;;;5092340;28;20107;-55
2022/03/08 03:27:34;;;;;;;21.85;11.38;;;0.80;99.90;;;;;;5084765;28;20032;-56
2022/03/08 03:30:00;;;;;;;20.48;11.65;;;0.80;99.90;;;;;;5073344;28;20444;-55
2022/03/08 03:32:25;;;;;;;19.48;10.90;;;0.80;99.90;;;;;;5071860;28;20097;-56
2022/03/08 03:34:51;;;;;;;21.55;10.65;;;0.80;99.90;;;;;;5072128;28;20086;-56
2022/03/08 03:37:17;;;;;;;22.92;12.15;;;0.80;99.90;;;;;;5086323;28;20530;-56
2022/03/08 03:39:43;;;;;;;23.20;11.93;;;0.70;99.90;;;;;;5092470;28;20040;-56
2022/03/08 03:42:09;;;;;;;21.45;11.90;;;0.70;99.90;;;;;;5091790;28;20032;-57
2022/03/08 03:44:34;;;;;;;22.38;12.60;;;0.80;99.90;;;;;;5091509;28;20032;-57
2022/03/08 03:47:00;;;;;;;21.63;11.93;;;0.70;99.90;;;;;;5091855;28;20044;-56
2022/03/08 03:49:26;;;;;;;21.75;11.95;;;0.70;99.90;;;;;;5092001;28;20051;-57
2022/03/08 03:51:51;;;;;;;27.23;13.00;;;0.70;99.90;;;;;;5091120;28;20040;-56
2022/03/08 03:54:21;;;;;;;22.15;11.95;;;0.60;99.90;;;;;;5091861;28;20044;-56
2022/03/08 03:56:47;;;;;;;21.83;12.23;;;0.60;99.90;;;;;;5090521;28;20044;-56
2022/03/08 03:59:13;;;;;;;18.55;11.57;;;0.60;99.90;;;;;;5091627;28;20119;-57
2022/03/08 04:01:39;;;;;;;25.08;12.27;;;0.60;99.90;;;;;;5091519;28;20032;-57
2022/03/08 04:04:04;;;;;;;23.13;12.98;;;0.60;99.90;;;;;;5091909;28;20487;-56
2022/03/08 04:06:30;;;;;;;26.27;13.55;;;0.50;99.90;;;;;;5087730;28;20071;-56
2022/03/08 04:08:55;;;;;;;24.92;12.52;;;0.50;99.90;;;;;;5090645;28;20491;-56
2022/03/08 04:11:21;;;;;;;22.70;11.70;;;0.50;99.90;;;;;;5079419;28;20036;-56
2022/03/08 04:13:47;;;;;;;27.05;12.23;;;0.50;99.90;;;;;;5071332;28;20040;-55
2022/03/08 04:16:12;;;;;;;21.90;12.25;;;0.40;99.90;;;;;;5071512;28;20415;-56
2022/03/08 04:18:38;;;;;;;22.50;12.27;;;0.40;99.90;;;;;;5088011;28;20109;-55
2022/03/08 04:21:04;;;;;;;25.15;12.57;;;0.40;99.90;;;;;;5083233;28;20107;-56
2022/03/08 04:23:29;;;;;;;23.45;11.95;;;0.30;99.90;;;;;;5090044;28;20083;-56
2022/03/08 04:25:55;;;;;;;20.80;12.23;;;0.30;99.90;;;;;;5091558;28;20035;-55
2022/03/08 04:28:20;;;;;;;24.75;13.25;;;0.30;99.90;;;;;;5090665;28;20043;-56
2022/03/08 04:30:46;;;;;;;23.38;12.65;;;0.20;99.90;;;;;;5091707;28;20105;-56
2022/03/08 04:33:12;;;;;;;25.35;12.82;;;0.30;99.90;;;;;;5091378;28;20051;-56
2022/03/08 04:35:37;;;;;;;28.02;13.38;;;0.30;99.90;;;;;;5091547;28;20638;-56
2022/03/08 04:38:03;;;;;;;26.15;13.52;;;0.30;99.90;;;;;;5091086;28;20554;-55
2022/03/08 04:40:29;;;;;;;23.08;12.63;;;0.30;99.90;;;;;;5091157;28;20085;-56
2022/03/08 04:42:55;;;;;;;24.17;12.95;;;0.30;99.90;;;;;;5091212;28;20040;-55
2022/03/08 04:45:21;;;;;;;24.15;12.90;;;0.30;99.90;;;;;;5091458;28;20044;-56
2022/03/08 04:47:47;;;;;;;27.00;13.43;;;0.30;99.90;;;;;;5083186;28;20438;-56
2022/03/08 04:50:14;;;;;;;24.15;13.23;;;0.40;99.90;;;;;;5090051;28;20170;-56
2022/03/08 04:52:41;;;;;;;25.02;12.98;;;0.40;99.90;;;;;;5090615;28;20032;-56
2022/03/08 04:55:07;;;;;;;24.27;13.32;;;0.40;99.90;;;;;;5095172;28;20040;-55
2022/03/08 04:57:33;;;;;;;23.90;13.52;;;0.40;99.90;;;;;;5094256;28;20056;-56
2022/03/08 04:59:59;;;;;;;25.90;13.50;;;0.50;99.90;;;;;;5094380;28;20120;-55
2022/03/08 05:02:24;;;;;;;26.38;13.13;;;0.50;99.90;;;;;;5094343;28;20614;-56
2022/03/08 05:04:50;;;;;;;24.85;13.60;;;0.50;99.90;;;;;;5095208;28;20507;-56
2022/03/08 05:07:16;;;;;;;24.25;12.73;;;0.40;99.90;;;;;;5094274;28;20039;-55
2022/03/08 05:09:41;;;;;;;24.80;13.57;;;0.50;99.90;;;;;;5094626;28;20054;-57
2022/03/08 05:12:11;;;;;;;25.92;14.52;;;0.40;99.90;;;;;;5095039;28;20044;-55
2022/03/08 05:14:36;;;;;;;22.23;13.40;;;0.50;99.90;;;;;;5088952;28;20028;-55
2022/03/08 05:17:03;;;;;;;23.45;13.35;;;0.50;99.90;;;;;;5084689;28;20103;-53
2022/03/08 05:19:29;;;;;;;23.52;12.98;;;0.40;99.90;;;;;;5089071;28;20036;-54
2022/03/08 05:21:54;;;;;;;23.23;13.05;;;0.40;99.90;;;;;;5086011;28;20089;-55
2022/03/08 05:24:20;;;;;;;25.98;13.95;;;0.40;99.90;;;;;;5081108;28;20119;-56
2022/03/08 05:26:45;;;;;;;26.85;14.02;;;0.40;99.90;;;;;;5076134;28;20119;-56
2022/03/08 05:29:11;;;;;;;25.55;13.85;;;0.40;99.90;;;;;;5089255;28;20036;-55
2022/03/08 05:31:37;;;;;;;23.65;13.45;;;0.50;99.90;;;;;;5082174;28;20066;-51
2022/03/08 05:34:03;;;;;;;28.23;14.35;;;0.40;99.90;;;;;;5129822;22;20043;-54
2022/03/08 05:36:28;;;;;;;25.42;14.23;;;0.40;99.90;;;;;;5089813;28;20059;-55
2022/03/08 05:38:54;;;;;;;27.17;14.05;;;0.40;99.90;;;;;;5085623;28;20036;-55
2022/03/08 05:41:20;;;;;;;25.77;14.57;;;0.40;99.90;;;;;;5087367;28;20032;-55
2022/03/08 05:43:45;;;;;;;28.25;14.13;;;0.40;99.90;;;;;;5086934;28;20116;-55
2022/03/08 05:46:11;;;;;;;25.40;14.30;;;0.40;99.90;;;;;;5085641;28;20032;-55
2022/03/08 05:48:37;;;;;;;25.83;13.38;;;0.40;99.90;;;;;;5092223;28;20044;-55
2022/03/08 05:51:03;;;;;;;23.10;12.80;;;0.40;99.90;;;;;;5091542;28;20044;-55
2022/03/08 05:53:29;;;;;;;25.45;13.45;;;0.50;99.90;;;;;;5090961;28;20393;-50
2022/03/08 05:55:55;;;;;;;25.10;13.77;;;0.50;99.90;;;;;;5091291;28;20055;-55
2022/03/08 05:58:21;;;;;;;26.75;13.57;;;0.40;99.90;;;;;;5089758;28;20040;-53
2022/03/08 06:00:47;;;;;;;28.73;13.70;;;0.50;99.90;;;;;;5090738;28;20048;-54
2022/03/08 06:03:13;;;;;;;26.70;14.00;;;0.50;99.90;;;;;;5082440;28;20076;-54
2022/03/08 06:05:38;;;;;;;23.75;13.30;;;0.50;99.90;;;;;;5090563;28;20422;-55
2022/03/08 06:08:05;;;;;;;27.70;13.30;;;0.50;99.90;;;;;;5093344;28;20529;-55
2022/03/08 06:10:34;;;;;;;27.15;14.27;;;0.50;99.90;;;;;;5092282;28;20028;-54
2022/03/08 06:12:59;;;;;;;28.05;13.52;;;0.50;99.90;;;;;;5085556;28;20040;-55
2022/03/08 06:15:25;;;;;;;27.67;14.60;;;0.40;99.90;;;;;;5091886;28;20035;-53
2022/03/08 06:17:52;;;;;;;27.02;13.45;;;0.40;99.90;;;;;;5088019;28;20033;-56
2022/03/08 06:20:17;;;;;;;28.23;14.57;;;0.40;99.90;;;;;;5088439;28;20047;-54
2022/03/08 06:22:43;;;;;;;23.80;13.90;;;0.40;99.90;;;;;;5062264;28;20036;-56
2022/03/08 06:25:09;;;;;;;23.75;13.60;;;0.40;99.90;;;;;;5089640;28;20036;-56
2022/03/08 06:27:35;;;;;;;26.75;13.77;;;0.40;99.90;;;;;;5081856;28;20039;-55
2022/03/08 06:30:01;;;;;;;27.65;13.45;;;0.50;99.90;;;;;;5090927;28;20411;-56
2022/03/08 06:32:26;;;;;;;25.85;13.50;;;0.50;99.90;;;;;;5091786;28;20048;-56
2022/03/08 06:34:52;;;;;;;25.42;14.30;;;0.50;99.90;;;;;;5092115;28;20051;-56
2022/03/08 06:37:18;;;;;;;23.52;13.30;;;0.50;99.90;;;;;;5091477;28;20036;-53
2022/03/08 06:39:48;;;;;;;23.60;12.90;;;0.60;99.90;;;;;;5091527;28;20040;-56
2022/03/08 06:42:14;;;;;;;22.92;13.00;;;0.60;99.90;;;;;;5093281;28;20110;-55
2022/03/08 06:44:40;;;;;;;24.35;12.50;;;0.70;99.90;;;;;;5093242;28;20123;-55
2022/03/08 06:47:07;;;;;;;23.30;13.25;;;0.70;99.90;;;;;;5092185;28;20161;-55
2022/03/08 06:49:33;;;;;;;24.30;12.88;;;0.70;99.90;;;;;;5091811;28;20065;-54
2022/03/08 06:51:59;;;;;;;24.25;13.63;;;0.70;99.90;;;;;;5091531;28;20040;-55
2022/03/08 06:54:25;;;;;;;23.17;13.63;;;0.70;99.90;;;;;;5091586;28;20048;-55
2022/03/08 06:56:50;;;;;;;22.85;12.73;;;0.80;99.90;;;;;;5088661;28;20063;-55
2022/03/08 06:59:16;;;;;;;21.58;13.02;;;0.80;99.90;;;;;;5073546;28;20037;-53
2022/03/08 07:01:42;;;;;;;25.23;13.88;;;0.80;99.90;;;;;;5072247;28;20036;-53
2022/03/08 07:04:08;;;;;;;23.33;13.02;;;0.90;99.90;;;;;;5087313;28;20094;-53
2022/03/08 07:06:33;;;;;;;22.33;12.70;;;0.90;99.90;;;;;;5085691;28;20120;-54
2022/03/08 07:08:59;;;;;;;22.83;12.90;;;1.00;99.90;;;;;;5074438;28;20039;-55
2022/03/08 07:11:25;;;;;;;24.15;13.80;;;1.20;99.90;;;;;;5084219;28;20032;-52
2022/03/08 07:13:51;;;;;;;22.63;12.63;;;1.20;99.90;;;;;;5057841;28;20044;-53
2022/03/08 07:16:18;;;;;;;22.27;13.35;;;1.20;99.90;;;;;;5079926;28;20409;-55
2022/03/08 07:18:44;;;;;;;23.85;13.23;;;1.30;99.90;;;;;;5091515;28;20070;-54
2022/03/08 07:21:09;;;;;;;26.38;12.50;;;1.40;99.90;;;;;;5057797;28;20048;-52
2022/03/08 07:23:35;;;;;;;20.27;12.18;;;1.40;99.90;;;;;;5092382;28;20050;-53
2022/03/08 07:26:01;;;;;;;21.48;11.85;;;1.40;99.90;;;;;;5092664;28;20089;-55
2022/03/08 07:28:26;;;;;;;18.55;12.02;;;1.60;99.90;;;;;;5091880;28;20065;-53
2022/03/08 07:30:52;;;;;;;20.27;11.10;;;1.70;99.90;;;;;;5083845;28;20047;-53
2022/03/08 07:33:17;;;;;;;20.13;12.20;;;1.70;99.90;;;;;;5092326;28;20046;-55
2022/03/08 07:35:43;;;;;;;22.92;12.48;;;1.80;99.90;;;;;;5092143;28;20040;-53
2022/03/08 07:38:08;;;;;;;20.98;12.23;;;1.90;99.90;;;;;;5091879;28;20135;-55
2022/03/08 07:40:34;;;;;;;22.63;12.43;;;2.00;99.90;;;;;;5092603;28;20134;-53
2022/03/08 07:43:01;;;;;;;20.30;11.48;;;2.10;99.90;;;;;;5092525;28;20063;-54
2022/03/08 07:45:27;;;;;;;21.50;12.57;;;2.20;99.90;;;;;;5091693;28;20435;-53
2022/03/08 07:47:53;;;;;;;22.13;12.05;;;2.30;99.90;;;;;;5091801;28;20040;-52
2022/03/08 07:50:18;;;;;;;20.23;11.57;;;2.40;99.90;;;;;;5091908;28;20450;-55
2022/03/08 07:52:44;;;;;;;21.20;11.82;;;2.60;99.90;;;;;;5091813;28;20400;-55
2022/03/08 07:55:09;;;;;;;18.23;11.18;;;2.70;99.90;;;;;;5092151;28;20044;-55
2022/03/08 07:57:35;;;;;;;19.63;11.73;;;2.80;99.90;;;;;;5085263;28;20534;-53
2022/03/08 08:00:04;;;;;;;16.92;9.63;;;2.90;99.90;;;;;;5087241;28;20041;-54
2022/03/08 08:02:29;;;;;;;20.70;11.95;;;3.10;99.90;;;;;;5076226;28;20077;-56
2022/03/08 08:04:56;;;;;;;21.13;11.73;;;3.20;99.90;;;;;;5091279;28;20403;-54
2022/03/08 08:07:22;;;;;;;19.20;10.40;;;3.20;99.90;;;;;;5073422;28;20483;-52
2022/03/08 08:09:48;;;;;;;18.50;10.93;;;3.40;99.90;;;;;;5090540;28;20068;-50
2022/03/08 08:12:13;;;;;;;22.08;11.23;;;3.40;99.90;;;;;;5090343;28;20082;-53
2022/03/08 08:14:39;;;;;;;18.42;11.32;;;3.50;99.90;;;;;;5089966;28;20075;-53
2022/03/08 08:17:05;;;;;;;18.13;10.93;;;3.60;99.90;;;;;;5091315;28;20043;-55
2022/03/08 08:19:31;;;;;;;21.13;11.30;;;3.70;99.90;;;;;;5090477;28;20452;-53
2022/03/08 08:21:57;;;;;;;20.95;11.05;;;3.90;99.90;;;;;;5091672;28;20078;-53
2022/03/08 08:24:23;;;;;;;16.17;10.20;;;4.00;99.90;;;;;;5091076;28;20075;-53
2022/03/08 08:26:48;;;;;;;19.10;10.38;;;4.10;99.90;;;;;;5083653;28;20310;-53
2022/03/08 08:29:14;;;;;;;17.73;11.13;;;4.20;99.90;;;;;;5095772;28;20040;-55
2022/03/08 08:31:40;;;;;;;18.05;11.18;;;4.30;99.90;;;;;;5095710;28;20040;-55
2022/03/08 08:34:06;;;;;;;18.85;11.05;;;4.30;99.90;;;;;;5076697;28;20083;-53
2022/03/08 08:36:31;;;;;;;17.45;10.10;;;4.40;99.90;;;;;;5095519;28;20083;-54
2022/03/08 08:38:57;;;;;;;17.40;10.35;;;4.50;99.90;;;;;;5095525;28;20051;-50
2022/03/08 08:41:22;;;;;;;18.30;11.27;;;4.60;99.40;;;;;;5060873;28;20036;-53
2022/03/08 08:43:48;;;;;;;16.45;9.70;;;4.60;99.20;;;;;;5076506;28;20093;-54
2022/03/08 08:46:14;;;;;;;17.83;10.25;;;4.70;98.40;;;;;;5086698;28;20127;-56
2022/03/08 08:48:39;;;;;;;16.88;9.98;;;4.80;97.20;;;;;;5095195;28;20127;-53
2022/03/08 08:51:05;;;;;;;14.82;9.90;;;4.90;97.50;;;;;;5095754;28;20040;-53
2022/03/08 08:53:31;;;;;;;16.20;9.85;;;5.00;96.40;;;;;;5095193;28;20040;-53
2022/03/08 08:55:56;;;;;;;17.17;10.38;;;5.10;95.70;;;;;;5093068;28;20101;-55
2022/03/08 08:58:22;;;;;;;15.43;9.68;;;5.10;95.30;;;;;;5086994;28;20499;-53
2022/03/08 09:00:47;;;;;;;16.02;9.27;;;5.20;94.90;;;;;;5095143;28;20052;-54
2022/03/08 09:03:16;;;;;;;17.05;10.05;;;5.30;94.40;;;;;;5092553;28;20115;-53
2022/03/08 09:05:45;;;;;;;14.90;10.00;;;5.30;94.00;;;;;;5074915;28;20400;-53
2022/03/08 09:08:11;;;;;;;15.68;8.60;;;5.40;94.50;;;;;;5074632;28;20067;-53
2022/03/08 09:10:37;;;;;;;14.43;9.18;;;5.50;93.20;;;;;;5074709;28;20071;-55
2022/03/08 09:13:03;;;;;;;16.73;9.75;;;5.70;92.40;;;;;;5074900;28;20044;-53
2022/03/08 09:15:29;;;;;;;15.98;9.70;;;5.70;92.00;;;;;;5094790;28;20036;-55
2022/03/08 09:17:55;;;;;;;15.05;9.50;;;5.70;91.70;;;;;;5094295;28;20111;-53
2022/03/08 09:20:22;;;;;;;16.80;9.45;;;5.80;91.90;;;;;;5095115;28;20460;-54
2022/03/08 09:22:48;;;;;;;16.23;9.70;;;5.90;91.00;;;;;;5093316;28;20050;-53
2022/03/08 09:25:14;;;;;;;15.95;9.48;;;5.90;91.10;;;;;;5094312;28;20115;-54
2022/03/08 09:27:40;;;;;;;14.90;8.65;;;6.00;90.30;;;;;;5076271;28;20039;-53
2022/03/08 09:30:06;;;;;;;15.65;9.52;;;6.10;89.10;;;;;;5094513;28;20097;-55
2022/03/08 09:32:32;;;;;;;16.02;9.07;;;6.20;89.80;;;;;;5094146;28;20488;-53
2022/03/08 09:34:58;;;;;;;17.23;8.98;;;6.30;87.00;;;;;;5093919;28;20040;-54
2022/03/08 09:37:24;;;;;;;12.70;8.65;;;6.30;86.50;;;;;;5094538;28;20040;-53
2022/03/08 09:39:50;;;;;;;13.50;8.82;;;6.40;86.60;;;;;;5093794;28;20484;-52
2022/03/08 09:42:17;;;;;;;14.52;8.77;;;6.50;85.20;;;;;;5094725;28;20028;-53
2022/03/08 09:44:43;;;;;;;13.82;9.40;;;6.60;83.60;;;;;;5093483;28;20051;-50
2022/03/08 09:47:09;;;;;;;13.02;8.15;;;6.60;85.00;;;;;;5083312;28;20067;-53
2022/03/08 09:49:34;;;;;;;13.23;8.55;;;6.70;81.60;;;;;;5076382;28;20071;-54
2022/03/08 09:52:00;;;;;;;12.88;7.85;;;6.80;79.90;;;;;;5094308;28;20566;-53
2022/03/08 09:54:25;;;;;;;12.13;7.72;;;6.90;79.00;;;;;;5093612;28;20032;-54
2022/03/08 09:56:51;;;;;;;12.02;7.40;;;7.00;76.60;;;;;;5093857;28;20032;-53
2022/03/08 09:59:18;;;;;;;14.02;7.65;;;7.10;75.30;;;;;;5090668;28;20129;-54
2022/03/08 10:01:45;;;;;;;12.13;7.20;;;7.20;75.40;;;;;;5088517;28;20039;-55
2022/03/08 10:04:18;;;;;;;9.52;6.47;;;7.30;74.10;;;;;;5093970;28;20044;-54
2022/03/08 10:06:47;;;;;;;9.40;6.03;;;7.50;67.60;;;;;;5093939;28;20059;-55
2022/03/08 10:09:18;;;;;;;11.63;6.10;;;7.60;64.80;;;;;;5092725;28;20047;-53
2022/03/08 10:11:44;;;;;;;11.00;5.88;;;7.60;66.30;;;;;;5094145;28;20036;-54
2022/03/08 10:14:26;;;;;;;10.85;5.53;;;7.70;62.60;;;;;;5093669;28;20516;-55
2022/03/08 10:16:53;;;;;;;10.38;6.50;;;7.70;61.70;;;;;;5093554;28;20044;-54
2022/03/08 10:19:19;;;;;;;9.93;5.97;;;7.70;63.00;;;;;;5085425;28;20036;-55
2022/03/08 10:21:54;;;;;;;9.75;6.35;;;7.80;60.60;;;;;;5093611;28;20024;-53
2022/03/08 10:24:23;;;;;;;10.10;6.00;;;7.80;61.20;;;;;;5093485;28;20405;-54
2022/03/08 10:26:58;;;;;;;11.13;5.53;;;7.80;59.60;;;;;;5093305;28;20046;-55
2022/03/08 10:29:24;;;;;;;9.68;6.03;;;7.90;58.90;;;;;;5093618;28;20066;-55
2022/03/08 10:32:09;;;;;;;13.18;6.70;;;7.90;59.40;;;;;;5089259;28;20044;-52
2022/03/08 10:34:36;;;;;;;10.80;6.32;;;8.00;59.60;;;;;;5073037;28;20041;-55
2022/03/08 10:37:13;;;;;;;13.68;6.25;;;8.00;60.60;;;;;;5072818;28;20119;-54
2022/03/08 10:39:51;;;;;;;9.85;6.80;;;8.00;60.60;;;;;;5071932;28;20068;-54
2022/03/08 10:42:22;;;;;;;9.38;6.70;;;8.10;60.90;;;;;;5058722;28;20040;-53
2022/03/08 10:44:49;;;;;;;9.52;6.10;;;8.20;58.20;;;;;;5093685;28;20074;-53
2022/03/08 10:47:16;;;;;;;11.15;7.15;;;8.30;58.50;;;;;;5093099;28;20491;-53
2022/03/08 10:49:54;;;;;;;12.77;7.15;;;8.30;58.00;;;;;;5092663;28;20126;-55
2022/03/08 10:52:47;;;;;;;9.25;6.75;;;8.30;60.30;;;;;;5085615;28;20115;-54
2022/03/08 10:55:25;;;;;;;10.68;6.93;;;8.40;58.10;;;;;;5084528;28;20052;-55
2022/03/08 10:57:54;;;;;;;9.77;6.80;;;8.40;59.10;;;;;;5092796;28;20036;-54
2022/03/08 11:00:37;;;;;;;11.48;6.75;;;8.60;57.60;;;;;;5093136;28;20040;-54
2022/03/08 11:03:09;;;;;;;12.52;6.90;;;8.70;57.20;;;;;;5083789;28;20044;-54
2022/03/08 11:05:44;;;;;;;10.93;6.72;;;8.70;55.60;;;;;;5078705;28;20074;-54
2022/03/08 11:08:11;;;;;;;11.00;5.50;;;8.70;58.00;;;;;;5091473;28;20130;-55
2022/03/08 11:10:37;;;;;;;9.35;6.18;;;8.80;57.40;;;;;;5092793;28;20120;-54
2022/03/08 11:13:04;;;;;;;10.75;5.72;;;8.90;55.50;;;;;;5092512;28;20105;-54
2022/03/08 11:15:33;;;;;;;8.32;5.05;;;8.90;55.50;;;;;;5091695;28;20391;-55
2022/03/08 11:18:00;;;;;;;10.45;5.60;;;9.00;54.20;;;;;;5065534;28;20040;-54
2022/03/08 11:20:27;;;;;;;8.75;5.65;;;9.00;53.50;;;;;;5080148;28;20032;-54
2022/03/08 11:22:57;;;;;;;10.20;5.80;;;9.00;55.30;;;;;;5089539;28;20044;-54
2022/03/08 11:25:29;;;;;;;8.20;5.53;;;9.00;53.60;;;;;;5093149;28;20036;-54
2022/03/08 11:27:55;;;;;;;7.90;5.57;;;9.10;55.20;;;;;;5092491;28;20495;-54
2022/03/08 11:30:25;;;;;;;8.00;5.65;;;9.10;55.50;;;;;;5080740;28;20032;-55
2022/03/08 11:33:18;;;;;;;6.85;4.30;;;9.20;56.20;;;;;;5090909;28;20511;-56
2022/03/08 11:36:08;;;;;;;9.93;5.75;;;9.30;52.60;;;;;;5091797;28;20038;-56
2022/03/08 11:38:33;;;;;;;10.65;5.72;;;9.30;52.00;;;;;;5072079;28;20049;-57
2022/03/08 11:40:59;;;;;;;8.30;5.22;;;9.30;52.10;;;;;;5072128;28;20041;-56
2022/03/08 11:43:45;;;;;;;9.93;5.80;;;9.20;52.20;;;;;;5090421;28;20028;-56
2022/03/08 11:46:29;;;;;;;9.48;5.38;;;9.20;54.10;;;;;;5083504;28;20040;-56
2022/03/08 11:48:57;;;;;;;7.95;5.50;;;9.30;55.00;;;;;;5092154;28;20046;-56
2022/03/08 11:51:27;;;;;;;8.68;5.07;;;9.30;54.30;;;;;;5090782;28;20047;-55
2022/03/08 11:54:25;;;;;;;10.07;5.40;;;9.40;53.00;;;;;;5091224;28;20067;-56
2022/03/08 11:56:53;;;;;;;10.38;5.53;;;9.50;51.60;;;;;;5090333;28;20040;-56
2022/03/08 11:59:19;;;;;;;8.68;5.43;;;9.50;53.10;;;;;;5091891;28;20044;-56
2022/03/08 12:01:47;;;;;;;8.07;5.15;;;9.60;52.10;;;;;;5091637;28;20036;-56
2022/03/08 12:04:18;;;;;;;8.95;5.30;;;9.70;51.10;;;;;;5091437;28;20032;-56
2022/03/08 12:06:54;;;;;;;9.57;5.32;;;9.70;50.70;;;;;;5091758;28;20141;-56
2022/03/08 12:09:22;;;;;;;7.72;5.07;;;9.70;50.40;;;;;;5091570;28;20504;-56
2022/03/08 12:12:02;;;;;;;7.82;4.35;;;9.80;49.60;;;;;;5091818;28;20047;-56
2022/03/08 12:14:30;;;;;;;7.93;4.97;;;9.70;49.10;;;;;;5086767;28;20419;-56
2022/03/08 12:17:19;;;;;;;10.10;5.18;;;9.80;49.70;;;;;;5087821;28;20040;-56
2022/03/08 12:19:53;;;;;;;7.22;4.68;;;9.80;49.00;;;;;;5091833;28;20044;-56
2022/03/08 12:22:22;;;;;;;7.22;4.78;;;9.90;49.10;;;;;;5092180;28;20051;-56
2022/03/08 12:24:59;;;;;;;6.95;4.43;;;9.80;49.90;;;;;;5091216;28;20040;-56
2022/03/08 12:27:45;;;;;;;9.00;4.88;;;9.90;49.80;;;;;;5091196;28;20523;-56
2022/03/08 12:30:11;;;;;;;8.88;4.40;;;9.90;49.10;;;;;;5091900;28;20047;-56
2022/03/08 12:32:42;;;;;;;6.97;4.25;;;9.90;49.80;;;;;;5091738;28;20040;-56
2022/03/08 12:35:14;;;;;;;7.35;3.83;;;10.00;51.00;;;;;;5091243;28;20050;-56
2022/03/08 12:37:44;;;;;;;6.50;4.43;;;10.10;47.60;;;;;;5091215;28;20109;-56
2022/03/08 12:40:12;;;;;;;6.35;4.20;;;10.10;46.70;;;;;;5091459;28;20060;-56
2022/03/08 12:42:57;;;;;;;9.50;4.65;;;10.20;46.20;;;;;;5091711;28;20040;-55